Time;durP1;ratioP1;P1;durP2;ratioP2;P2;SDS_P1;SDS_P2;PMS_P1;PMS_P2;Temp;Humidity;BMP_temperature;BMP_pressure;BME280_temperature;BME280_humidity;BME280_pressure;Samples;Min_cycle;Max_cycle;Signal;HPM_P1;HPM_P2
2023/07/24 00:00:09;;;;;;;5.67;5.07;;;21.50;99.90;;;;;;5030663;28;20165;-77
2023/07/24 00:02:35;;;;;;;5.20;4.80;;;21.50;99.90;;;;;;5052068;28;20236;-76
2023/07/24 00:05:01;;;;;;;5.80;5.27;;;21.50;99.90;;;;;;5043600;28;20177;-79
2023/07/24 00:07:28;;;;;;;5.90;5.30;;;21.50;99.90;;;;;;5042834;28;20173;-78
2023/07/24 00:09:55;;;;;;;5.93;5.43;;;21.40;99.90;;;;;;5043288;28;20192;-79
2023/07/24 00:12:21;;;;;;;6.57;5.70;;;21.40;99.90;;;;;;5038281;28;20203;-77
2023/07/24 00:14:49;;;;;;;6.13;5.53;;;21.40;99.90;;;;;;5031170;28;20570;-76
2023/07/24 00:17:16;;;;;;;7.00;5.43;;;21.40;99.90;;;;;;5043429;28;20532;-77
2023/07/24 00:19:41;;;;;;;6.37;5.70;;;21.40;99.90;;;;;;5044185;28;20702;-75
2023/07/24 00:22:07;;;;;;;7.27;5.57;;;21.30;99.90;;;;;;5044125;28;20247;-77
2023/07/24 00:24:35;;;;;;;6.10;5.50;;;21.30;99.90;;;;;;5046366;28;20177;-76
2023/07/24 00:27:01;;;;;;;6.90;6.00;;;22.20;99.90;;;;;;5043341;28;20203;-78
2023/07/24 00:29:27;;;;;;;6.73;6.10;;;21.20;99.90;;;;;;5043770;28;20639;-77
2023/07/24 00:31:53;;;;;;;7.33;5.80;;;21.20;99.90;;;;;;5044716;28;20206;-76
2023/07/24 00:34:19;;;;;;;6.67;5.70;;;21.10;99.90;;;;;;5025276;28;20231;-76
2023/07/24 00:36:46;;;;;;;6.63;5.80;;;21.10;99.90;;;;;;5043016;28;20179;-76
2023/07/24 00:39:14;;;;;;;6.57;5.87;;;21.10;99.90;;;;;;5028586;28;20184;-76
2023/07/24 00:41:39;;;;;;;8.77;6.93;;;21.10;99.90;;;;;;5043007;28;20208;-78
2023/07/24 00:44:06;;;;;;;6.03;5.53;;;21.10;99.90;;;;;;5042578;28;20180;-76
2023/07/24 00:46:34;;;;;;;6.43;5.83;;;21.10;99.90;;;;;;5043080;28;20216;-76
2023/07/24 00:49:03;;;;;;;7.93;5.80;;;21.10;99.90;;;;;;5043691;28;20176;-76
2023/07/24 00:51:30;;;;;;;7.63;5.63;;;21.10;99.90;;;;;;5045178;28;20184;-76
2023/07/24 00:54:14;;;;;;;7.07;5.63;;;21.10;99.90;;;;;;5045731;28;20264;-76
2023/07/24 00:56:40;;;;;;;7.07;5.90;;;21.10;99.90;;;;;;5045517;28;20524;-75
2023/07/24 00:59:06;;;;;;;7.07;5.67;;;21.10;99.90;;;;;;5048110;28;20232;-77
2023/07/24 01:01:37;;;;;;;6.33;5.73;;;21.10;99.90;;;;;;5039317;28;20240;-78
2023/07/24 01:04:08;;;;;;;6.33;5.63;;;21.10;99.90;;;;;;5055556;28;20173;-77
2023/07/24 01:06:34;;;;;;;7.13;5.63;;;21.00;99.90;;;;;;5047539;28;20258;-77
2023/07/24 01:09:01;;;;;;;6.80;6.03;;;21.00;99.90;;;;;;5044776;28;20172;-78
2023/07/24 01:11:42;;;;;;;6.43;5.83;;;21.00;99.90;;;;;;5044917;28;20165;-78
2023/07/24 01:14:37;;;;;;;7.83;6.30;;;21.00;99.90;;;;;;5050445;28;20175;-76
2023/07/24 01:17:08;;;;;;;6.83;5.70;;;21.00;99.90;;;;;;5053317;28;20163;-77
2023/07/24 01:19:46;;;;;;;6.70;6.00;;;21.00;99.90;;;;;;5056206;28;20364;-78
2023/07/24 01:22:26;;;;;;;7.40;6.20;;;21.00;99.90;;;;;;5060366;28;20200;-78
2023/07/24 01:24:58;;;;;;;7.40;6.33;;;20.90;99.90;;;;;;5060601;28;20191;-76
2023/07/24 01:27:27;;;;;;;6.70;5.93;;;20.80;99.90;;;;;;5048787;28;20215;-77
2023/07/24 01:29:55;;;;;;;7.53;6.63;;;20.80;99.90;;;;;;5034592;28;20188;-76
2023/07/24 01:32:21;;;;;;;7.80;6.07;;;20.80;99.90;;;;;;5053344;28;20214;-78
2023/07/24 01:34:48;;;;;;;6.40;5.80;;;20.80;99.90;;;;;;5042870;28;20641;-78
2023/07/24 01:37:16;;;;;;;6.87;5.80;;;20.80;99.90;;;;;;5049429;28;20227;-78
2023/07/24 01:39:44;;;;;;;6.63;5.73;;;20.80;99.90;;;;;;5049027;28;20196;-77
2023/07/24 01:42:11;;;;;;;8.50;6.27;;;20.80;99.90;;;;;;5039877;28;20200;-76
2023/07/24 01:44:36;;;;;;;7.73;6.00;;;20.80;99.90;;;;;;5022731;28;20172;-76
2023/07/24 01:47:03;;;;;;;7.13;5.73;;;20.70;99.90;;;;;;5039860;28;20260;-77
2023/07/24 01:49:29;;;;;;;7.13;6.43;;;20.80;99.90;;;;;;5053315;28;20188;-75
2023/07/24 01:51:57;;;;;;;7.60;5.93;;;20.70;99.90;;;;;;5025150;28;20679;-75
2023/07/24 01:54:23;;;;;;;8.27;6.43;;;20.60;99.90;;;;;;5039703;28;20187;-76
2023/07/24 01:56:50;;;;;;;7.30;6.27;;;20.50;99.90;;;;;;5039476;28;20187;-77
2023/07/24 01:59:16;;;;;;;7.47;6.27;;;20.50;99.90;;;;;;5039256;28;20179;-76
2023/07/24 02:01:42;;;;;;;7.80;6.43;;;20.50;99.90;;;;;;5039127;28;20212;-76
2023/07/24 02:04:08;;;;;;;7.40;6.70;;;20.50;99.90;;;;;;5038883;28;20661;-76
2023/07/24 02:06:34;;;;;;;8.63;6.30;;;20.50;99.90;;;;;;5039363;28;20207;-76
2023/07/24 02:09:00;;;;;;;7.60;6.70;;;20.40;99.90;;;;;;5039329;28;20530;-76
2023/07/24 02:11:25;;;;;;;7.23;6.53;;;20.40;99.90;;;;;;5038835;28;20180;-76
2023/07/24 02:13:51;;;;;;;7.10;6.23;;;20.40;99.90;;;;;;5039013;28;20334;-76
2023/07/24 02:16:17;;;;;;;8.17;6.40;;;20.30;99.90;;;;;;5038839;28;20180;-77
2023/07/24 02:18:43;;;;;;;10.30;6.60;;;20.30;99.90;;;;;;5039036;28;20181;-78
2023/07/24 02:21:09;;;;;;;7.27;6.57;;;20.20;99.90;;;;;;5038889;28;20562;-78
2023/07/24 02:23:35;;;;;;;9.03;6.93;;;20.20;99.90;;;;;;5021652;28;20176;-78
2023/07/24 02:26:01;;;;;;;7.40;6.30;;;20.20;99.90;;;;;;5040798;28;20211;-76
2023/07/24 02:28:28;;;;;;;7.53;6.77;;;20.20;99.90;;;;;;5039881;28;20556;-78
2023/07/24 02:30:57;;;;;;;7.23;6.00;;;20.20;99.90;;;;;;5039957;28;20183;-76
2023/07/24 02:33:23;;;;;;;6.97;6.27;;;20.20;99.90;;;;;;5040083;28;20224;-77
2023/07/24 02:35:51;;;;;;;7.00;6.10;;;20.20;99.90;;;;;;5039671;28;20227;-78
2023/07/24 02:38:17;;;;;;;7.27;6.57;;;20.20;99.90;;;;;;5042766;28;20239;-76
2023/07/24 02:40:44;;;;;;;9.63;6.57;;;20.20;99.90;;;;;;5054289;28;20176;-78
2023/07/24 02:43:10;;;;;;;7.67;6.10;;;20.20;99.90;;;;;;5032697;28;20200;-75
2023/07/24 02:45:38;;;;;;;7.00;6.20;;;20.20;99.90;;;;;;5038910;28;20179;-77
2023/07/24 02:48:05;;;;;;;6.80;6.10;;;20.20;99.90;;;;;;5037283;28;20176;-76
2023/07/24 02:50:30;;;;;;;7.93;6.67;;;20.20;99.90;;;;;;5038057;28;20184;-76
2023/07/24 02:52:57;;;;;;;7.43;6.07;;;20.10;99.90;;;;;;5020591;28;20593;-76
2023/07/24 02:55:23;;;;;;;6.93;6.23;;;20.20;99.90;;;;;;5038657;28;20177;-76
2023/07/24 02:57:53;;;;;;;7.60;6.33;;;20.10;99.90;;;;;;5038260;28;20176;-77
2023/07/24 03:00:18;;;;;;;8.77;6.67;;;20.10;99.90;;;;;;5036079;28;20528;-75
2023/07/24 03:02:44;;;;;;;7.80;6.30;;;20.10;99.90;;;;;;5015742;28;20707;-77
2023/07/24 03:05:10;;;;;;;6.90;6.23;;;20.10;99.90;;;;;;5033640;28;20194;-77
2023/07/24 03:07:36;;;;;;;7.13;5.83;;;20.10;99.90;;;;;;5033045;28;20226;-76
2023/07/24 03:10:02;;;;;;;7.57;6.23;;;20.10;99.90;;;;;;5015709;28;20691;-77
2023/07/24 03:12:28;;;;;;;7.27;6.23;;;20.10;99.90;;;;;;5045220;28;20161;-77
2023/07/24 03:14:54;;;;;;;8.17;6.77;;;20.00;99.90;;;;;;5055787;28;20180;-77
2023/07/24 03:17:20;;;;;;;7.40;6.60;;;20.00;99.90;;;;;;5033770;28;20614;-76
2023/07/24 03:19:48;;;;;;;8.07;6.10;;;20.00;99.90;;;;;;5035106;28;20200;-77
2023/07/24 03:22:13;;;;;;;7.53;6.40;;;19.90;99.90;;;;;;5044063;28;20208;-76
2023/07/24 03:24:39;;;;;;;7.20;6.07;;;19.90;99.90;;;;;;5041254;28;20200;-79
2023/07/24 03:27:05;;;;;;;7.67;6.60;;;19.90;99.90;;;;;;5047983;28;20192;-76
2023/07/24 03:29:30;;;;;;;6.90;6.20;;;19.90;99.90;;;;;;5033046;28;20187;-78
2023/07/24 03:31:56;;;;;;;7.80;6.17;;;20.00;99.90;;;;;;5033905;28;20187;-77
2023/07/24 03:34:22;;;;;;;8.70;6.47;;;20.00;99.90;;;;;;5033301;28;20699;-77
2023/07/24 03:36:48;;;;;;;7.07;6.07;;;20.00;99.90;;;;;;5033353;28;20180;-76
2023/07/24 03:39:13;;;;;;;6.63;6.03;;;19.90;99.90;;;;;;5033076;28;20176;-75
2023/07/24 03:41:41;;;;;;;7.03;5.63;;;19.90;99.90;;;;;;5033517;28;20204;-76
2023/07/24 03:44:07;;;;;;;6.93;6.23;;;19.90;99.90;;;;;;5032924;28;20263;-77
2023/07/24 03:46:33;;;;;;;6.30;5.70;;;19.80;99.90;;;;;;5033108;28;20239;-76
2023/07/24 03:48:58;;;;;;;7.40;6.10;;;19.80;99.90;;;;;;5033001;28;20165;-75
2023/07/24 03:51:24;;;;;;;7.03;6.03;;;19.90;99.90;;;;;;5014975;28;20198;-76
2023/07/24 03:53:50;;;;;;;6.70;6.10;;;19.80;99.90;;;;;;5033448;28;20176;-76
2023/07/24 03:56:16;;;;;;;7.20;6.17;;;19.90;99.90;;;;;;5033352;28;20245;-77
2023/07/24 03:58:42;;;;;;;6.87;6.17;;;19.90;99.90;;;;;;5033787;28;20176;-76
2023/07/24 04:01:11;;;;;;;7.03;6.00;;;19.90;99.90;;;;;;5037725;28;20203;-77
2023/07/24 04:03:37;;;;;;;7.20;6.37;;;19.90;99.90;;;;;;5040608;28;20180;-77
2023/07/24 04:06:02;;;;;;;7.67;6.00;;;19.90;99.90;;;;;;5033328;28;20543;-76
2023/07/24 04:08:28;;;;;;;7.03;6.03;;;19.90;99.90;;;;;;5034021;28;20176;-75
2023/07/24 04:10:56;;;;;;;7.20;6.10;;;19.90;99.90;;;;;;5033883;28;20176;-77
2023/07/24 04:13:22;;;;;;;6.43;5.83;;;20.00;99.90;;;;;;5034295;28;20191;-78
2023/07/24 04:15:48;;;;;;;7.43;5.73;;;19.90;99.90;;;;;;5034066;28;20644;-76
2023/07/24 04:18:14;;;;;;;7.20;5.87;;;20.00;99.90;;;;;;5037686;28;20173;-78
2023/07/24 04:20:39;;;;;;;6.37;5.77;;;20.00;99.90;;;;;;5053541;28;20245;-77
2023/07/24 04:23:05;;;;;;;7.20;6.20;;;20.00;99.90;;;;;;5055849;28;20238;-77
2023/07/24 04:25:31;;;;;;;6.43;5.30;;;20.00;99.90;;;;;;5045393;28;20184;-77
2023/07/24 04:27:56;;;;;;;8.17;6.20;;;19.90;99.90;;;;;;5042025;28;20239;-77
2023/07/24 04:30:22;;;;;;;9.37;6.10;;;20.00;99.90;;;;;;5037818;28;20184;-76
2023/07/24 04:32:49;;;;;;;6.30;5.77;;;20.00;99.90;;;;;;5039339;28;20184;-76
2023/07/24 04:35:15;;;;;;;6.07;5.47;;;20.00;99.90;;;;;;5037460;28;20235;-77
2023/07/24 04:37:41;;;;;;;7.27;6.23;;;19.90;99.90;;;;;;5035152;28;20173;-78
2023/07/24 04:40:07;;;;;;;7.70;6.10;;;20.00;99.90;;;;;;5037316;28;20185;-77
2023/07/24 04:42:33;;;;;;;6.57;5.87;;;20.10;99.90;;;;;;5037086;28;20281;-76
2023/07/24 04:44:58;;;;;;;7.37;5.97;;;20.10;99.90;;;;;;5020829;28;20636;-76
2023/07/24 04:47:24;;;;;;;7.23;5.67;;;20.10;99.90;;;;;;5039433;28;20187;-75
2023/07/24 04:49:50;;;;;;;7.17;5.50;;;20.20;99.90;;;;;;5023335;28;20212;-76
2023/07/24 04:52:15;;;;;;;5.60;5.10;;;20.20;99.90;;;;;;5053465;28;20187;-76
2023/07/24 04:54:41;;;;;;;9.10;6.17;;;20.30;99.90;;;;;;5039179;28;20644;-76
2023/07/24 04:57:07;;;;;;;6.70;6.10;;;20.40;99.90;;;;;;5039393;28;20192;-77
2023/07/24 04:59:33;;;;;;;7.70;6.23;;;20.40;99.90;;;;;;5038144;28;20172;-76
2023/07/24 05:01:59;;;;;;;6.97;6.00;;;20.50;99.90;;;;;;5027593;28;20199;-79
2023/07/24 05:04:24;;;;;;;6.43;5.73;;;20.60;99.90;;;;;;5054098;28;20176;-78
2023/07/24 05:06:50;;;;;;;6.27;5.67;;;20.60;99.90;;;;;;5043711;28;20539;-75
2023/07/24 05:09:16;;;;;;;6.17;5.57;;;20.60;99.90;;;;;;5039866;28;20177;-78
2023/07/24 05:11:44;;;;;;;7.37;5.83;;;20.60;99.90;;;;;;5053384;28;20180;-76
2023/07/24 05:14:10;;;;;;;6.03;5.43;;;20.70;99.90;;;;;;5041306;28;20196;-77
2023/07/24 05:16:36;;;;;;;6.20;5.60;;;20.70;99.90;;;;;;5036284;28;20168;-77
2023/07/24 05:19:02;;;;;;;5.77;5.23;;;20.80;99.90;;;;;;5035891;28;20179;-75
2023/07/24 05:21:28;;;;;;;5.60;5.10;;;20.80;99.90;;;;;;5036207;28;20208;-76
2023/07/24 05:23:53;;;;;;;5.90;5.40;;;20.80;99.90;;;;;;5038172;28;20207;-76
2023/07/24 05:26:19;;;;;;;6.00;5.50;;;20.80;99.90;;;;;;5047171;28;20203;-76
2023/07/24 05:28:45;;;;;;;5.60;5.07;;;20.90;99.90;;;;;;5038340;28;20184;-77
2023/07/24 05:31:12;;;;;;;6.13;5.43;;;20.90;99.90;;;;;;5036890;28;20536;-77
2023/07/24 05:33:38;;;;;;;5.80;5.20;;;20.90;99.90;;;;;;5019967;28;20216;-76
2023/07/24 05:36:05;;;;;;;6.07;5.47;;;20.90;99.90;;;;;;5035537;28;20544;-78
2023/07/24 05:38:31;;;;;;;5.93;5.37;;;21.00;99.90;;;;;;5036615;28;20169;-76
2023/07/24 05:41:01;;;;;;;7.00;6.00;;;21.00;99.90;;;;;;5034676;28;20204;-77
2023/07/24 05:43:28;;;;;;;6.37;5.77;;;21.20;99.90;;;;;;5035289;28;20698;-76
2023/07/24 05:45:55;;;;;;;6.23;5.53;;;21.30;99.90;;;;;;5035232;28;20180;-78
2023/07/24 05:48:22;;;;;;;6.40;5.80;;;21.30;99.90;;;;;;5038029;28;20164;-76
2023/07/24 05:50:48;;;;;;;5.73;5.23;;;21.30;99.90;;;;;;5036387;28;20168;-77
2023/07/24 05:53:15;;;;;;;6.03;5.43;;;21.50;99.90;;;;;;5036402;28;20176;-77
2023/07/24 05:55:42;;;;;;;6.00;5.50;;;21.50;99.90;;;;;;5038057;28;20640;-76
2023/07/24 05:58:08;;;;;;;6.43;5.60;;;21.60;99.90;;;;;;5038850;28;20642;-77
2023/07/24 06:00:33;;;;;;;8.73;5.53;;;21.50;99.90;;;;;;5052697;28;20169;-76
2023/07/24 06:02:59;;;;;;;6.00;5.40;;;21.60;99.90;;;;;;5053327;28;20204;-77
2023/07/24 06:05:25;;;;;;;7.10;5.73;;;21.60;99.90;;;;;;5038498;28;20177;-77
2023/07/24 06:07:52;;;;;;;6.70;5.70;;;21.70;99.90;;;;;;5017568;28;20307;-77
2023/07/24 06:10:18;;;;;;;8.07;5.63;;;21.80;99.90;;;;;;5035292;28;20204;-76
2023/07/24 06:12:43;;;;;;;5.37;4.87;;;21.80;99.90;;;;;;5035564;28;20230;-80
2023/07/24 06:15:10;;;;;;;5.40;4.90;;;21.90;99.90;;;;;;5035961;28;20179;-77
2023/07/24 06:17:35;;;;;;;5.90;5.40;;;21.90;99.90;;;;;;5035816;28;20223;-77
2023/07/24 06:20:01;;;;;;;5.53;5.03;;;22.00;99.90;;;;;;5036581;28;20180;-79
2023/07/24 06:22:29;;;;;;;6.53;5.83;;;22.10;99.90;;;;;;5042587;28;20208;-77
2023/07/24 06:24:55;;;;;;;6.30;5.70;;;22.10;99.90;;;;;;5041321;28;20183;-76
2023/07/24 06:27:21;;;;;;;6.70;5.13;;;22.20;99.90;;;;;;5042752;28;20194;-77
2023/07/24 06:29:47;;;;;;;5.83;5.30;;;22.20;99.90;;;;;;5044604;28;20183;-77
2023/07/24 06:32:13;;;;;;;5.83;5.33;;;22.40;99.90;;;;;;5017264;28;20641;-75
2023/07/24 06:34:43;;;;;;;6.13;5.53;;;22.50;99.90;;;;;;5035464;28;20235;-76
2023/07/24 06:37:09;;;;;;;7.18;5.70;;;22.70;99.90;;;;;;5040249;28;20216;-76
2023/07/24 06:39:35;;;;;;;7.18;5.40;;;22.90;99.90;;;;;;5043577;28;20180;-76
2023/07/24 06:42:03;;;;;;;7.53;5.23;;;23.10;99.90;;;;;;5041588;28;20215;-77
2023/07/24 06:44:29;;;;;;;5.82;5.22;;;23.30;99.90;;;;;;5040114;28;20278;-74
2023/07/24 06:46:54;;;;;;;6.35;5.75;;;23.30;99.90;;;;;;5033604;28;20807;-77
2023/07/24 06:49:20;;;;;;;7.75;5.53;;;23.30;99.90;;;;;;5036610;28;20240;-78
2023/07/24 06:51:46;;;;;;;6.25;5.65;;;23.30;99.90;;;;;;5035221;28;20168;-76
2023/07/24 06:54:11;;;;;;;6.13;5.47;;;23.40;99.90;;;;;;5016426;28;20177;-76
2023/07/24 06:56:37;;;;;;;6.68;6.00;;;23.50;99.90;;;;;;5036552;28;20177;-77
2023/07/24 06:59:03;;;;;;;7.00;6.10;;;23.50;99.90;;;;;;5034159;28;20262;-76
2023/07/24 07:01:29;;;;;;;6.45;5.85;;;23.60;99.90;;;;;;5033059;28;20204;-76
2023/07/24 07:03:54;;;;;;;8.32;6.32;;;23.60;99.90;;;;;;5033846;28;20172;-75
2023/07/24 07:06:20;;;;;;;8.23;6.20;;;23.60;99.90;;;;;;5034818;28;20196;-76
2023/07/24 07:08:46;;;;;;;6.72;5.47;;;23.60;99.90;;;;;;5038574;28;20252;-77
2023/07/24 07:11:11;;;;;;;6.88;6.20;;;23.80;99.90;;;;;;5046043;28;20346;-76
2023/07/24 07:13:37;;;;;;;6.40;5.70;;;23.80;99.90;;;;;;5028297;28;20219;-76
2023/07/24 07:16:03;;;;;;;8.50;6.32;;;23.90;99.90;;;;;;5045066;28;20184;-78
2023/07/24 07:18:29;;;;;;;6.88;6.28;;;24.00;99.90;;;;;;5042709;28;20200;-75
2023/07/24 07:20:55;;;;;;;7.82;6.00;;;24.10;99.90;;;;;;5045790;28;20196;-75
2023/07/24 07:23:21;;;;;;;8.25;6.47;;;24.20;99.90;;;;;;5046753;28;20243;-75
2023/07/24 07:25:47;;;;;;;7.00;6.18;;;24.30;99.90;;;;;;5047065;28;20161;-74
2023/07/24 07:28:13;;;;;;;6.47;5.80;;;24.40;99.90;;;;;;5048304;28;20190;-78
2023/07/24 07:30:40;;;;;;;7.57;6.40;;;24.50;99.90;;;;;;5051375;28;20195;-81
2023/07/24 07:33:06;;;;;;;7.90;5.53;;;24.60;99.90;;;;;;5049739;28;20195;-78
2023/07/24 07:35:32;;;;;;;7.70;6.32;;;24.70;99.90;;;;;;5047664;28;20231;-76
2023/07/24 07:37:59;;;;;;;6.75;6.05;;;24.80;99.90;;;;;;5038654;28;20172;-77
2023/07/24 07:40:26;;;;;;;8.60;6.32;;;24.90;99.90;;;;;;5047538;28;20161;-76
2023/07/24 07:42:53;;;;;;;6.97;6.28;;;24.90;99.90;;;;;;5031286;28;20223;-74
2023/07/24 07:45:19;;;;;;;7.90;7.07;;;24.90;99.90;;;;;;5040004;28;20165;-77
2023/07/24 07:47:44;;;;;;;7.80;6.25;;;24.70;99.90;;;;;;5036928;28;20363;-76
2023/07/24 07:50:11;;;;;;;10.95;6.15;;;24.70;99.90;;;;;;5034195;28;20230;-75
2023/07/24 07:52:37;;;;;;;7.30;6.57;;;24.80;99.90;;;;;;5033691;28;20168;-77
2023/07/24 07:55:03;;;;;;;8.52;6.35;;;24.80;99.90;;;;;;5034227;28;20172;-76
2023/07/24 07:57:28;;;;;;;7.65;6.55;;;24.90;99.90;;;;;;5034219;28;20176;-75
2023/07/24 07:59:54;;;;;;;6.55;5.95;;;25.00;99.90;;;;;;5034167;28;20176;-77
2023/07/24 08:02:20;;;;;;;6.97;6.28;;;25.10;99.90;;;;;;5015946;28;20667;-78
2023/07/24 08:04:46;;;;;;;7.15;6.45;;;25.20;99.90;;;;;;5036014;28;20218;-77
2023/07/24 08:07:11;;;;;;;6.80;6.20;;;25.40;99.90;;;;;;5051376;28;20246;-75
2023/07/24 08:09:38;;;;;;;10.20;6.13;;;25.40;99.90;;;;;;5038146;28;20246;-77
2023/07/24 08:12:04;;;;;;;7.85;5.93;;;25.50;99.90;;;;;;5032796;28;20184;-76
2023/07/24 08:14:30;;;;;;;7.93;6.10;;;25.60;99.90;;;;;;5036346;28;20234;-76
2023/07/24 08:16:56;;;;;;;7.82;6.18;;;25.60;99.90;;;;;;5044317;28;20183;-77
2023/07/24 08:19:22;;;;;;;7.53;6.43;;;25.70;99.90;;;;;;5054010;28;20215;-75
2023/07/24 08:21:47;;;;;;;7.28;6.43;;;25.70;99.90;;;;;;5037876;28;20204;-75
2023/07/24 08:24:13;;;;;;;6.78;6.18;;;25.70;99.90;;;;;;5037207;28;20703;-76
2023/07/24 08:26:39;;;;;;;8.35;6.45;;;25.80;99.90;;;;;;5037445;28;20180;-77
2023/07/24 08:29:05;;;;;;;8.32;6.38;;;25.90;99.90;;;;;;5036820;28;20164;-76
2023/07/24 08:31:31;;;;;;;8.68;6.20;;;26.00;99.90;;;;;;5041146;28;20635;-76
2023/07/24 08:33:57;;;;;;;7.47;6.78;;;26.10;99.90;;;;;;5038206;28;20212;-76
2023/07/24 08:36:23;;;;;;;7.45;6.32;;;26.10;99.90;;;;;;5024060;28;20188;-76
2023/07/24 08:38:49;;;;;;;6.90;5.85;;;26.10;99.90;;;;;;5029981;28;20223;-76
2023/07/24 08:41:15;;;;;;;12.07;7.93;;;26.10;99.90;;;;;;5042245;28;20204;-78
2023/07/24 08:43:42;;;;;;;7.60;6.85;;;26.20;99.90;;;;;;5037280;28;20251;-77
2023/07/24 08:46:09;;;;;;;6.63;6.03;;;26.40;99.90;;;;;;5037336;28;20180;-77
2023/07/24 08:48:40;;;;;;;8.85;7.22;;;26.40;99.90;;;;;;5038145;28;20675;-76
2023/07/24 08:51:11;;;;;;;6.90;6.20;;;26.50;99.90;;;;;;5036920;28;20253;-76
2023/07/24 08:53:41;;;;;;;8.27;6.07;;;26.20;99.90;;;;;;5036147;28;20196;-76
2023/07/24 08:56:08;;;;;;;8.35;7.15;;;26.20;99.90;;;;;;5037220;28;20540;-75
2023/07/24 08:58:35;;;;;;;7.65;6.22;;;26.20;99.90;;;;;;5036476;28;20165;-77
2023/07/24 09:01:02;;;;;;;6.95;6.35;;;26.30;99.90;;;;;;5036146;28;20175;-76
2023/07/24 09:03:28;;;;;;;7.90;6.72;;;26.20;99.90;;;;;;5036437;28;20173;-77
2023/07/24 09:05:58;;;;;;;7.10;6.15;;;26.40;99.90;;;;;;5036108;28;20191;-77
2023/07/24 09:08:34;;;;;;;8.88;6.70;;;26.40;99.90;;;;;;5018588;28;20566;-75
2023/07/24 09:11:01;;;;;;;7.55;6.60;;;26.50;99.90;;;;;;5018268;28;20175;-75
2023/07/24 09:13:28;;;;;;;7.20;6.50;;;26.60;99.90;;;;;;5035664;28;20215;-74
2023/07/24 09:15:55;;;;;;;7.00;6.30;;;26.70;99.90;;;;;;5036046;28;20183;-75
2023/07/24 09:18:21;;;;;;;8.63;6.07;;;26.70;99.90;;;;;;5036034;28;20171;-77
2023/07/24 09:20:47;;;;;;;7.40;6.40;;;26.70;99.90;;;;;;5043864;28;20308;-78
2023/07/24 09:23:15;;;;;;;7.72;6.40;;;26.70;99.90;;;;;;5054712;28;20185;-76
2023/07/24 09:25:42;;;;;;;8.32;6.20;;;26.80;99.90;;;;;;5041799;28;20191;-75
2023/07/24 09:28:17;;;;;;;7.38;6.25;;;26.90;99.90;;;;;;5035719;28;20168;-77
2023/07/24 09:30:53;;;;;;;6.85;5.88;;;27.10;99.90;;;;;;5036121;28;20195;-76
2023/07/24 09:33:19;;;;;;;8.70;6.82;;;27.20;99.90;;;;;;5037680;28;20254;-77
2023/07/24 09:35:45;;;;;;;7.40;6.38;;;27.30;99.90;;;;;;5036131;28;20224;-78
2023/07/24 09:38:11;;;;;;;7.40;6.60;;;27.40;99.90;;;;;;5024896;28;20176;-75
2023/07/24 09:40:45;;;;;;;6.95;6.25;;;27.60;99.90;;;;;;5042659;28;20172;-77
2023/07/24 09:43:21;;;;;;;7.28;6.30;;;27.80;99.90;;;;;;5043983;28;20169;-79
2023/07/24 09:45:48;;;;;;;6.95;6.30;;;28.00;99.90;;;;;;5053898;28;20185;-77
2023/07/24 09:48:16;;;;;;;7.15;5.82;;;28.10;99.90;;;;;;5040116;28;20200;-75
2023/07/24 09:50:45;;;;;;;8.68;6.35;;;28.20;99.90;;;;;;5035862;28;20183;-77
2023/07/24 09:53:33;;;;;;;7.30;6.38;;;28.20;99.90;;;;;;5035851;28;20209;-77
2023/07/24 09:56:03;;;;;;;7.05;6.35;;;28.30;99.90;;;;;;5053841;28;20191;-76
2023/07/24 09:58:29;;;;;;;7.45;6.32;;;28.40;99.90;;;;;;5039657;28;20168;-76
2023/07/24 10:00:57;;;;;;;7.38;6.18;;;28.40;99.90;;;;;;5034611;28;20219;-77
2023/07/24 10:03:23;;;;;;;9.60;5.50;;;28.40;99.90;;;;;;5034778;28;20176;-77
2023/07/24 10:05:50;;;;;;;7.25;6.38;;;28.40;99.90;;;;;;5035043;28;20534;-76
2023/07/24 10:08:17;;;;;;;6.38;5.65;;;28.50;99.90;;;;;;5035036;28;20180;-76
2023/07/24 10:10:44;;;;;;;6.68;6.00;;;28.60;99.90;;;;;;5034553;28;20255;-76
2023/07/24 10:13:14;;;;;;;8.40;6.03;;;28.80;99.90;;;;;;5034722;28;20179;-77
2023/07/24 10:15:41;;;;;;;6.25;5.65;;;28.70;99.90;;;;;;5034278;28;20508;-77
2023/07/24 10:18:08;;;;;;;6.80;6.20;;;28.70;99.90;;;;;;5034654;28;20176;-75
2023/07/24 10:20:36;;;;;;;7.00;6.30;;;28.80;99.90;;;;;;5034300;28;20252;-75
2023/07/24 10:23:02;;;;;;;8.15;6.18;;;28.80;99.90;;;;;;5034856;28;20204;-76
2023/07/24 10:25:32;;;;;;;6.78;6.18;;;28.80;99.90;;;;;;5016940;28;20216;-78
2023/07/24 10:28:07;;;;;;;7.43;6.47;;;28.70;99.90;;;;;;5034609;28;20502;-77
2023/07/24 10:30:36;;;;;;;7.63;6.75;;;28.50;99.90;;;;;;5034354;28;20228;-77
2023/07/24 10:33:11;;;;;;;7.53;6.80;;;28.50;99.90;;;;;;5034402;28;20599;-76
2023/07/24 10:35:45;;;;;;;7.97;6.50;;;28.60;99.90;;;;;;5034994;28;20219;-76
2023/07/24 10:38:13;;;;;;;7.57;6.88;;;28.50;99.90;;;;;;5041696;28;20172;-76
2023/07/24 10:40:45;;;;;;;7.30;6.53;;;28.60;99.90;;;;;;5024996;28;20260;-76
2023/07/24 10:43:12;;;;;;;7.72;6.90;;;28.60;99.90;;;;;;5036382;28;20196;-76
2023/07/24 10:45:52;;;;;;;7.97;7.18;;;28.70;99.90;;;;;;5034249;28;20169;-77
2023/07/24 10:48:20;;;;;;;7.35;6.38;;;28.80;99.90;;;;;;5034913;28;20184;-75
2023/07/24 10:50:48;;;;;;;8.05;6.70;;;29.00;99.90;;;;;;5034012;28;20241;-77
2023/07/24 10:53:16;;;;;;;7.80;7.10;;;29.20;99.90;;;;;;5034092;28;20222;-78
2023/07/24 10:55:50;;;;;;;8.07;7.28;;;29.30;99.90;;;;;;5033257;28;20266;-76
2023/07/24 10:58:16;;;;;;;8.40;7.60;;;29.50;99.90;;;;;;5034090;28;20576;-76
2023/07/24 11:00:47;;;;;;;8.13;7.32;;;29.60;99.90;;;;;;5021146;28;20181;-78
2023/07/24 11:03:14;;;;;;;8.90;7.63;;;29.70;99.90;;;;;;5050814;28;20279;-77
2023/07/24 11:05:44;;;;;;;8.25;7.55;;;29.70;99.90;;;;;;5041781;28;20757;-77
2023/07/24 11:08:20;;;;;;;7.72;6.72;;;29.70;99.90;;;;;;5034664;28;20223;-76
2023/07/24 11:10:49;;;;;;;9.05;7.85;;;29.60;99.90;;;;;;5033795;28;20171;-76
2023/07/24 11:13:16;;;;;;;8.23;7.43;;;29.50;99.90;;;;;;5034730;28;20169;-78
2023/07/24 11:15:42;;;;;;;10.57;7.68;;;29.30;99.90;;;;;;5015840;28;20203;-77
2023/07/24 11:18:08;;;;;;;8.63;7.80;;;29.20;99.90;;;;;;5033903;28;20692;-75
2023/07/24 11:20:49;;;;;;;8.32;7.53;;;28.90;99.90;;;;;;5033835;28;20200;-77
2023/07/24 11:23:15;;;;;;;9.25;7.38;;;28.70;99.90;;;;;;5051172;28;20267;-77
2023/07/24 11:25:41;;;;;;;8.75;7.95;;;28.60;99.90;;;;;;5033953;28;20227;-77
2023/07/24 11:28:09;;;;;;;9.82;8.18;;;28.50;99.90;;;;;;5033903;28;20188;-76
2023/07/24 11:30:35;;;;;;;9.82;8.00;;;28.50;99.90;;;;;;5033328;28;20173;-75
2023/07/24 11:33:06;;;;;;;10.50;8.57;;;28.60;99.90;;;;;;5043201;28;20235;-76
2023/07/24 11:35:32;;;;;;;10.63;7.40;;;28.90;99.90;;;;;;5046837;28;20247;-77
2023/07/24 11:37:58;;;;;;;11.43;7.78;;;29.20;99.90;;;;;;5034002;28;20220;-77
2023/07/24 11:40:42;;;;;;;8.75;7.85;;;29.40;99.90;;;;;;5033705;28;20263;-76
2023/07/24 11:43:17;;;;;;;9.73;8.40;;;29.60;99.90;;;;;;5033980;28;20202;-76
2023/07/24 11:45:44;;;;;;;9.60;8.15;;;29.60;99.90;;;;;;5040262;28;20198;-78
2023/07/24 11:48:11;;;;;;;11.65;8.45;;;29.60;99.90;;;;;;5041026;28;20173;-76
2023/07/24 11:50:51;;;;;;;8.90;8.00;;;29.60;99.90;;;;;;5020010;28;20696;-76
2023/07/24 11:53:30;;;;;;;9.05;8.15;;;29.70;99.90;;;;;;5037509;28;20251;-78
2023/07/24 11:56:00;;;;;;;9.90;8.90;;;29.70;99.90;;;;;;5037552;28;20627;-77
2023/07/24 11:58:27;;;;;;;9.88;7.88;;;29.90;99.90;;;;;;5037066;28;20153;-76
2023/07/24 12:00:54;;;;;;;10.18;7.97;;;29.90;99.90;;;;;;5036835;28;20179;-77
2023/07/24 12:03:24;;;;;;;10.65;8.45;;;29.90;99.90;;;;;;5019541;28;20334;-77
2023/07/24 12:05:51;;;;;;;9.38;7.93;;;30.00;99.90;;;;;;5036909;28;20165;-75
2023/07/24 12:08:19;;;;;;;8.68;7.63;;;30.00;99.90;;;;;;5036722;28;20172;-78
2023/07/24 12:10:44;;;;;;;8.88;8.07;;;30.10;99.90;;;;;;5036676;28;20164;-78
2023/07/24 12:13:10;;;;;;;9.40;7.80;;;30.10;99.90;;;;;;5036948;28;20306;-77
2023/07/24 12:15:37;;;;;;;9.38;8.35;;;30.40;99.90;;;;;;5036821;28;20173;-77
2023/07/24 12:18:04;;;;;;;11.07;7.82;;;30.60;99.90;;;;;;5037773;28;20175;-77
2023/07/24 12:20:31;;;;;;;9.85;7.97;;;30.70;99.90;;;;;;5040277;28;20660;-76
2023/07/24 12:22:57;;;;;;;9.25;8.30;;;30.70;99.90;;;;;;5022487;28;20231;-75
2023/07/24 12:25:24;;;;;;;8.70;7.90;;;30.60;99.90;;;;;;5023413;28;20593;-77
2023/07/24 12:27:50;;;;;;;8.88;8.00;;;30.60;99.90;;;;;;5039091;28;20255;-75
2023/07/24 12:30:16;;;;;;;9.02;7.88;;;30.50;99.90;;;;;;5037376;28;20662;-77
2023/07/24 12:32:41;;;;;;;9.43;8.48;;;30.20;99.90;;;;;;5036040;28;20184;-76
2023/07/24 12:35:11;;;;;;;8.98;8.05;;;30.00;99.90;;;;;;5035654;28;20231;-76
2023/07/24 12:37:39;;;;;;;10.93;8.60;;;30.00;99.90;;;;;;5035538;28;20264;-76
2023/07/24 12:40:05;;;;;;;8.95;8.05;;;29.70;99.90;;;;;;5036844;28;20184;-76
2023/07/24 12:42:31;;;;;;;8.73;7.85;;;29.60;99.90;;;;;;5043868;28;20203;-77
2023/07/24 12:44:57;;;;;;;10.13;8.35;;;29.60;99.90;;;;;;5052982;28;20184;-76